Beenleigh, Australia
Current Conditions -  °F | °C
As of 6:30 AM on Saturday 22 Nov 2014 (Local Time) from YBBN Reporting Station
Broken Clouds Broken Clouds  
Wind Chill: 79°   Ceiling: 17000
Heat Index: 82°   Visibility: 6mi
Dew Point: 72°   Wind: 16mph
Humidity: 78%   Direction: 360°N
Pressure: 29.94"   Gusts: NA
Location:  27.72°S, 153.2°E
Report Text: YBBN 212030Z 36014KT 9999 FEW020 BKN170 26/22 Q1014
Loading
Personal Weather Stations






























Interactive Weather Map New forecast layout! Learn more

10-Day Weather Forecast

Advertisements
Track Severe Weather on mobile